sensor_id;sensor_type;location;lat;lon;timestamp;P1;durP1;ratioP1;P2;durP2;ratioP2
7013;SDS011;3547;50.774;12.918;2023-02-03T00:01:34;2.00;;;1.33;;
7013;SDS011;3547;50.774;12.918;2023-02-03T00:04:00;2.17;;;1.40;;
7013;SDS011;3547;50.774;12.918;2023-02-03T00:06:26;1.23;;;1.07;;
7013;SDS011;3547;50.774;12.918;2023-02-03T00:08:53;0.60;;;0.60;;
7013;SDS011;3547;50.774;12.918;2023-02-03T00:11:22;3.63;;;1.10;;
7013;SDS011;3547;50.774;12.918;2023-02-03T00:13:48;2.40;;;1.03;;
7013;SDS011;3547;50.774;12.918;2023-02-03T00:16:14;1.77;;;1.07;;
7013;SDS011;3547;50.774;12.918;2023-02-03T00:18:41;1.53;;;0.73;;
7013;SDS011;3547;50.774;12.918;2023-02-03T00:21:07;1.17;;;0.90;;
7013;SDS011;3547;50.774;12.918;2023-02-03T00:23:33;0.57;;;0.57;;
7013;SDS011;3547;50.774;12.918;2023-02-03T00:26:06;1.17;;;1.00;;
7013;SDS011;3547;50.774;12.918;2023-02-03T00:28:36;1.37;;;0.90;;
7013;SDS011;3547;50.774;12.918;2023-02-03T00:31:02;3.60;;;1.00;;
7013;SDS011;3547;50.774;12.918;2023-02-03T00:33:29;6.13;;;1.50;;
7013;SDS011;3547;50.774;12.918;2023-02-03T00:35:55;2.07;;;1.07;;
7013;SDS011;3547;50.774;12.918;2023-02-03T00:38:21;2.60;;;1.40;;
7013;SDS011;3547;50.774;12.918;2023-02-03T00:40:51;4.23;;;1.07;;
7013;SDS011;3547;50.774;12.918;2023-02-03T00:43:18;3.57;;;1.30;;
7013;SDS011;3547;50.774;12.918;2023-02-03T00:45:44;0.80;;;0.80;;
7013;SDS011;3547;50.774;12.918;2023-02-03T00:48:10;0.63;;;0.63;;
7013;SDS011;3547;50.774;12.918;2023-02-03T00:50:37;1.17;;;0.80;;
7013;SDS011;3547;50.774;12.918;2023-02-03T00:53:03;0.77;;;0.53;;
7013;SDS011;3547;50.774;12.918;2023-02-03T00:55:29;1.97;;;0.43;;
7013;SDS011;3547;50.774;12.918;2023-02-03T00:57:55;1.93;;;0.40;;
7013;SDS011;3547;50.774;12.918;2023-02-03T01:00:21;2.17;;;0.63;;
7013;SDS011;3547;50.774;12.918;2023-02-03T01:02:47;0.30;;;0.30;;
7013;SDS011;3547;50.774;12.918;2023-02-03T01:05:14;1.07;;;0.90;;
7013;SDS011;3547;50.774;12.918;2023-02-03T01:07:40;0.60;;;0.60;;
7013;SDS011;3547;50.774;12.918;2023-02-03T01:10:06;0.43;;;0.43;;
7013;SDS011;3547;50.774;12.918;2023-02-03T01:12:33;0.77;;;0.70;;
7013;SDS011;3547;50.774;12.918;2023-02-03T01:14:59;0.67;;;0.63;;
7013;SDS011;3547;50.774;12.918;2023-02-03T01:17:25;2.13;;;0.60;;
7013;SDS011;3547;50.774;12.918;2023-02-03T01:19:51;0.33;;;0.33;;
7013;SDS011;3547;50.774;12.918;2023-02-03T01:22:18;0.40;;;0.40;;
7013;SDS011;3547;50.774;12.918;2023-02-03T01:24:44;0.57;;;0.47;;
7013;SDS011;3547;50.774;12.918;2023-02-03T01:27:10;0.40;;;0.40;;
7013;SDS011;3547;50.774;12.918;2023-02-03T01:29:36;0.30;;;0.30;;
7013;SDS011;3547;50.774;12.918;2023-02-03T01:32:02;1.03;;;0.40;;
7013;SDS011;3547;50.774;12.918;2023-02-03T01:34:28;0.40;;;0.40;;
7013;SDS011;3547;50.774;12.918;2023-02-03T01:36:55;0.67;;;0.50;;
7013;SDS011;3547;50.774;12.918;2023-02-03T01:39:21;1.17;;;0.40;;
7013;SDS011;3547;50.774;12.918;2023-02-03T01:41:47;0.30;;;0.30;;
7013;SDS011;3547;50.774;12.918;2023-02-03T01:53:07;0.60;;;0.60;;
7013;SDS011;3547;50.774;12.918;2023-02-03T01:55:37;1.23;;;0.67;;
7013;SDS011;3547;50.774;12.918;2023-02-03T01:58:17;0.83;;;0.83;;
7013;SDS011;3547;50.774;12.918;2023-02-03T02:00:50;0.70;;;0.70;;
7013;SDS011;3547;50.774;12.918;2023-02-03T02:03:17;1.40;;;0.53;;
7013;SDS011;3547;50.774;12.918;2023-02-03T02:05:55;1.07;;;0.97;;
7013;SDS011;3547;50.774;12.918;2023-02-03T02:08:34;1.13;;;0.83;;
7013;SDS011;3547;50.774;12.918;2023-02-03T02:11:03;0.60;;;0.60;;
7013;SDS011;3547;50.774;12.918;2023-02-03T02:13:31;1.10;;;0.83;;
7013;SDS011;3547;50.774;12.918;2023-02-03T02:37:59;1.97;;;0.93;;
7013;SDS011;3547;50.774;12.918;2023-02-03T02:40:35;1.40;;;1.07;;
7013;SDS011;3547;50.774;12.918;2023-02-03T02:43:09;0.70;;;0.70;;
7013;SDS011;3547;50.774;12.918;2023-02-03T02:46:32;0.80;;;0.80;;
7013;SDS011;3547;50.774;12.918;2023-02-03T02:48:56;1.37;;;1.00;;
7013;SDS011;3547;50.774;12.918;2023-02-03T02:51:36;1.90;;;1.20;;
7013;SDS011;3547;50.774;12.918;2023-02-03T02:54:04;1.20;;;1.10;;
7013;SDS011;3547;50.774;12.918;2023-02-03T02:56:34;1.10;;;1.00;;
7013;SDS011;3547;50.774;12.918;2023-02-03T02:59:03;1.37;;;1.23;;
7013;SDS011;3547;50.774;12.918;2023-02-03T03:01:31;1.23;;;1.13;;
7013;SDS011;3547;50.774;12.918;2023-02-03T03:03:59;1.20;;;1.10;;
7013;SDS011;3547;50.774;12.918;2023-02-03T03:06:34;1.07;;;0.97;;
7013;SDS011;3547;50.774;12.918;2023-02-03T03:09:17;0.80;;;0.70;;
7013;SDS011;3547;50.774;12.918;2023-02-03T03:11:51;1.33;;;1.10;;
7013;SDS011;3547;50.774;12.918;2023-02-03T03:14:23;1.43;;;1.17;;
7013;SDS011;3547;50.774;12.918;2023-02-03T03:16:54;1.10;;;1.00;;
7013;SDS011;3547;50.774;12.918;2023-02-03T03:19:26;1.40;;;1.10;;
7013;SDS011;3547;50.774;12.918;2023-02-03T03:21:58;1.90;;;1.07;;
7013;SDS011;3547;50.774;12.918;2023-02-03T03:24:29;1.23;;;1.10;;
7013;SDS011;3547;50.774;12.918;2023-02-03T03:27:05;1.70;;;1.40;;
7013;SDS011;3547;50.774;12.918;2023-02-03T03:29:37;1.40;;;1.30;;
7013;SDS011;3547;50.774;12.918;2023-02-03T03:32:15;1.70;;;1.23;;
7013;SDS011;3547;50.774;12.918;2023-02-03T03:34:41;2.17;;;0.97;;
7013;SDS011;3547;50.774;12.918;2023-02-03T03:39:46;0.97;;;0.93;;
7013;SDS011;3547;50.774;12.918;2023-02-03T03:44:52;3.03;;;1.30;;
7013;SDS011;3547;50.774;12.918;2023-02-03T03:50:03;1.57;;;1.30;;
7013;SDS011;3547;50.774;12.918;2023-02-03T03:52:32;1.30;;;1.20;;
7013;SDS011;3547;50.774;12.918;2023-02-03T03:55:02;1.70;;;1.60;;
7013;SDS011;3547;50.774;12.918;2023-02-03T03:57:34;1.60;;;1.33;;
7013;SDS011;3547;50.774;12.918;2023-02-03T04:00:04;1.87;;;1.20;;
7013;SDS011;3547;50.774;12.918;2023-02-03T04:02:34;1.60;;;1.40;;
7013;SDS011;3547;50.774;12.918;2023-02-03T04:05:03;1.40;;;1.30;;
7013;SDS011;3547;50.774;12.918;2023-02-03T04:07:38;1.97;;;1.50;;
7013;SDS011;3547;50.774;12.918;2023-02-03T04:10:33;2.47;;;1.83;;
7013;SDS011;3547;50.774;12.918;2023-02-03T04:12:59;2.30;;;1.83;;
7013;SDS011;3547;50.774;12.918;2023-02-03T04:15:25;2.27;;;1.70;;
7013;SDS011;3547;50.774;12.918;2023-02-03T04:17:52;2.40;;;1.87;;
7013;SDS011;3547;50.774;12.918;2023-02-03T04:20:19;2.00;;;1.80;;
7013;SDS011;3547;50.774;12.918;2023-02-03T04:22:45;2.10;;;1.87;;
7013;SDS011;3547;50.774;12.918;2023-02-03T04:25:25;1.83;;;1.73;;
7013;SDS011;3547;50.774;12.918;2023-02-03T04:27:51;3.10;;;2.30;;
7013;SDS011;3547;50.774;12.918;2023-02-03T04:30:18;4.37;;;2.03;;
7013;SDS011;3547;50.774;12.918;2023-02-03T04:32:45;2.30;;;2.00;;
7013;SDS011;3547;50.774;12.918;2023-02-03T04:35:11;3.20;;;2.30;;
7013;SDS011;3547;50.774;12.918;2023-02-03T04:37:38;2.43;;;2.10;;
7013;SDS011;3547;50.774;12.918;2023-02-03T04:40:04;3.30;;;2.70;;
7013;SDS011;3547;50.774;12.918;2023-02-03T04:42:31;2.70;;;2.40;;
7013;SDS011;3547;50.774;12.918;2023-02-03T04:44:57;3.93;;;2.73;;
7013;SDS011;3547;50.774;12.918;2023-02-03T04:47:23;3.70;;;2.50;;
7013;SDS011;3547;50.774;12.918;2023-02-03T04:49:49;4.07;;;3.10;;
7013;SDS011;3547;50.774;12.918;2023-02-03T04:52:15;3.37;;;2.60;;
7013;SDS011;3547;50.774;12.918;2023-02-03T04:54:41;3.67;;;2.47;;
7013;SDS011;3547;50.774;12.918;2023-02-03T04:57:08;10.57;;;2.83;;
7013;SDS011;3547;50.774;12.918;2023-02-03T04:59:34;4.07;;;2.67;;
7013;SDS011;3547;50.774;12.918;2023-02-03T05:02:01;3.77;;;2.77;;
7013;SDS011;3547;50.774;12.918;2023-02-03T05:04:28;3.20;;;2.50;;
7013;SDS011;3547;50.774;12.918;2023-02-03T05:06:54;3.33;;;2.83;;
7013;SDS011;3547;50.774;12.918;2023-02-03T05:09:22;4.17;;;2.67;;
7013;SDS011;3547;50.774;12.918;2023-02-03T05:11:52;4.97;;;3.13;;
7013;SDS011;3547;50.774;12.918;2023-02-03T05:14:19;3.57;;;2.53;;
7013;SDS011;3547;50.774;12.918;2023-02-03T05:16:45;5.60;;;2.53;;
7013;SDS011;3547;50.774;12.918;2023-02-03T05:19:12;3.27;;;2.00;;
7013;SDS011;3547;50.774;12.918;2023-02-03T05:21:38;4.57;;;3.20;;
7013;SDS011;3547;50.774;12.918;2023-02-03T05:24:04;4.40;;;3.30;;
7013;SDS011;3547;50.774;12.918;2023-02-03T05:26:35;11.60;;;3.20;;
7013;SDS011;3547;50.774;12.918;2023-02-03T05:29:01;4.53;;;2.87;;
7013;SDS011;3547;50.774;12.918;2023-02-03T05:31:28;5.20;;;3.23;;
7013;SDS011;3547;50.774;12.918;2023-02-03T05:33:54;2.83;;;2.47;;
7013;SDS011;3547;50.774;12.918;2023-02-03T05:36:20;2.97;;;2.33;;
7013;SDS011;3547;50.774;12.918;2023-02-03T05:38:46;3.63;;;2.57;;
7013;SDS011;3547;50.774;12.918;2023-02-03T05:41:12;3.40;;;2.80;;
7013;SDS011;3547;50.774;12.918;2023-02-03T05:43:57;5.93;;;2.60;;
7013;SDS011;3547;50.774;12.918;2023-02-03T05:46:23;6.17;;;2.90;;
7013;SDS011;3547;50.774;12.918;2023-02-03T05:48:49;4.03;;;3.00;;
7013;SDS011;3547;50.774;12.918;2023-02-03T05:51:15;4.20;;;2.50;;
7013;SDS011;3547;50.774;12.918;2023-02-03T05:53:42;5.33;;;2.77;;
7013;SDS011;3547;50.774;12.918;2023-02-03T05:56:08;5.00;;;2.80;;
7013;SDS011;3547;50.774;12.918;2023-02-03T05:58:34;2.27;;;1.97;;
7013;SDS011;3547;50.774;12.918;2023-02-03T06:01:00;4.17;;;2.60;;
7013;SDS011;3547;50.774;12.918;2023-02-03T06:03:27;3.93;;;2.57;;
7013;SDS011;3547;50.774;12.918;2023-02-03T06:06:09;2.93;;;2.63;;
7013;SDS011;3547;50.774;12.918;2023-02-03T06:08:38;2.87;;;2.20;;
7013;SDS011;3547;50.774;12.918;2023-02-03T06:11:04;3.20;;;2.40;;
7013;SDS011;3547;50.774;12.918;2023-02-03T06:13:30;2.93;;;2.53;;
7013;SDS011;3547;50.774;12.918;2023-02-03T06:15:56;5.17;;;2.73;;
7013;SDS011;3547;50.774;12.918;2023-02-03T06:18:22;3.03;;;2.30;;
7013;SDS011;3547;50.774;12.918;2023-02-03T06:20:49;4.83;;;2.47;;
7013;SDS011;3547;50.774;12.918;2023-02-03T06:23:15;3.37;;;1.93;;
7013;SDS011;3547;50.774;12.918;2023-02-03T06:25:46;2.40;;;1.80;;
7013;SDS011;3547;50.774;12.918;2023-02-03T06:28:13;3.23;;;2.23;;
7013;SDS011;3547;50.774;12.918;2023-02-03T06:30:39;2.33;;;1.90;;
7013;SDS011;3547;50.774;12.918;2023-02-03T06:33:06;2.10;;;1.63;;
7013;SDS011;3547;50.774;12.918;2023-02-03T06:35:32;2.17;;;1.90;;
7013;SDS011;3547;50.774;12.918;2023-02-03T06:37:58;3.57;;;2.10;;
7013;SDS011;3547;50.774;12.918;2023-02-03T06:40:24;2.67;;;1.73;;
7013;SDS011;3547;50.774;12.918;2023-02-03T06:42:50;2.30;;;1.90;;
7013;SDS011;3547;50.774;12.918;2023-02-03T06:45:17;3.87;;;2.03;;
7013;SDS011;3547;50.774;12.918;2023-02-03T06:47:43;2.63;;;1.90;;
7013;SDS011;3547;50.774;12.918;2023-02-03T06:50:11;2.70;;;1.70;;
7013;SDS011;3547;50.774;12.918;2023-02-03T06:52:39;1.80;;;1.60;;
7013;SDS011;3547;50.774;12.918;2023-02-03T06:55:05;2.47;;;1.70;;
7013;SDS011;3547;50.774;12.918;2023-02-03T06:57:32;4.27;;;1.83;;
7013;SDS011;3547;50.774;12.918;2023-02-03T06:59:58;2.07;;;1.63;;
7013;SDS011;3547;50.774;12.918;2023-02-03T07:02:24;1.73;;;1.50;;
7013;SDS011;3547;50.774;12.918;2023-02-03T07:04:50;2.10;;;1.70;;
7013;SDS011;3547;50.774;12.918;2023-02-03T07:07:16;2.50;;;1.90;;
7013;SDS011;3547;50.774;12.918;2023-02-03T07:09:42;1.70;;;1.53;;
7013;SDS011;3547;50.774;12.918;2023-02-03T07:12:08;2.00;;;1.53;;
7013;SDS011;3547;50.774;12.918;2023-02-03T07:14:34;1.40;;;1.13;;
7013;SDS011;3547;50.774;12.918;2023-02-03T07:17:01;2.17;;;1.80;;
7013;SDS011;3547;50.774;12.918;2023-02-03T07:19:28;3.10;;;2.00;;
7013;SDS011;3547;50.774;12.918;2023-02-03T07:21:54;1.23;;;1.13;;
7013;SDS011;3547;50.774;12.918;2023-02-03T07:24:20;2.07;;;1.10;;
7013;SDS011;3547;50.774;12.918;2023-02-03T07:26:46;1.20;;;1.13;;
7013;SDS011;3547;50.774;12.918;2023-02-03T07:29:12;1.40;;;1.30;;
7013;SDS011;3547;50.774;12.918;2023-02-03T07:31:38;1.57;;;1.20;;
7013;SDS011;3547;50.774;12.918;2023-02-03T07:34:05;1.43;;;1.30;;
7013;SDS011;3547;50.774;12.918;2023-02-03T07:36:31;1.27;;;1.17;;
7013;SDS011;3547;50.774;12.918;2023-02-03T07:38:57;1.10;;;0.90;;
7013;SDS011;3547;50.774;12.918;2023-02-03T07:41:23;1.53;;;1.20;;
7013;SDS011;3547;50.774;12.918;2023-02-03T07:43:49;4.80;;;1.30;;
7013;SDS011;3547;50.774;12.918;2023-02-03T07:46:16;3.63;;;1.00;;
7013;SDS011;3547;50.774;12.918;2023-02-03T07:48:42;1.43;;;1.20;;
7013;SDS011;3547;50.774;12.918;2023-02-03T07:51:08;1.17;;;1.07;;
7013;SDS011;3547;50.774;12.918;2023-02-03T07:53:34;2.10;;;1.17;;
7013;SDS011;3547;50.774;12.918;2023-02-03T07:56:04;1.97;;;1.27;;
7013;SDS011;3547;50.774;12.918;2023-02-03T07:58:30;1.77;;;1.40;;
7013;SDS011;3547;50.774;12.918;2023-02-03T08:00:56;3.00;;;1.37;;
7013;SDS011;3547;50.774;12.918;2023-02-03T08:03:23;2.40;;;1.77;;
7013;SDS011;3547;50.774;12.918;2023-02-03T08:05:49;2.00;;;1.50;;
7013;SDS011;3547;50.774;12.918;2023-02-03T08:08:16;1.77;;;1.30;;
7013;SDS011;3547;50.774;12.918;2023-02-03T08:10:42;1.83;;;1.60;;
7013;SDS011;3547;50.774;12.918;2023-02-03T08:13:09;2.77;;;1.70;;
7013;SDS011;3547;50.774;12.918;2023-02-03T08:15:35;2.00;;;1.20;;
7013;SDS011;3547;50.774;12.918;2023-02-03T08:18:01;1.97;;;1.60;;
7013;SDS011;3547;50.774;12.918;2023-02-03T08:20:27;1.07;;;0.97;;
7013;SDS011;3547;50.774;12.918;2023-02-03T08:22:53;1.23;;;1.00;;
7013;SDS011;3547;50.774;12.918;2023-02-03T08:25:19;2.90;;;1.53;;
7013;SDS011;3547;50.774;12.918;2023-02-03T08:27:45;1.60;;;1.50;;
7013;SDS011;3547;50.774;12.918;2023-02-03T08:30:12;4.43;;;1.43;;
7013;SDS011;3547;50.774;12.918;2023-02-03T08:32:38;1.77;;;1.60;;
7013;SDS011;3547;50.774;12.918;2023-02-03T08:35:06;2.37;;;1.60;;
7013;SDS011;3547;50.774;12.918;2023-02-03T08:37:32;1.63;;;1.53;;
7013;SDS011;3547;50.774;12.918;2023-02-03T08:39:59;2.17;;;1.93;;
7013;SDS011;3547;50.774;12.918;2023-02-03T08:42:25;4.33;;;1.93;;
7013;SDS011;3547;50.774;12.918;2023-02-03T08:44:51;2.17;;;1.70;;
7013;SDS011;3547;50.774;12.918;2023-02-03T08:47:17;2.87;;;1.47;;
7013;SDS011;3547;50.774;12.918;2023-02-03T08:49:43;2.03;;;1.57;;
7013;SDS011;3547;50.774;12.918;2023-02-03T08:52:10;1.13;;;1.03;;
7013;SDS011;3547;50.774;12.918;2023-02-03T08:54:38;1.53;;;1.43;;
7013;SDS011;3547;50.774;12.918;2023-02-03T08:57:04;2.27;;;1.40;;
7013;SDS011;3547;50.774;12.918;2023-02-03T08:59:31;2.03;;;1.43;;
7013;SDS011;3547;50.774;12.918;2023-02-03T09:02:01;1.80;;;1.33;;
7013;SDS011;3547;50.774;12.918;2023-02-03T09:04:28;2.40;;;1.80;;
7013;SDS011;3547;50.774;12.918;2023-02-03T09:06:55;1.53;;;1.43;;
7013;SDS011;3547;50.774;12.918;2023-02-03T09:09:21;2.10;;;1.80;;
7013;SDS011;3547;50.774;12.918;2023-02-03T09:11:48;1.77;;;1.30;;
7013;SDS011;3547;50.774;12.918;2023-02-03T09:14:14;2.77;;;2.00;;
7013;SDS011;3547;50.774;12.918;2023-02-03T09:16:40;3.80;;;1.80;;
7013;SDS011;3547;50.774;12.918;2023-02-03T09:19:07;1.00;;;0.97;;
7013;SDS011;3547;50.774;12.918;2023-02-03T09:21:33;2.37;;;1.80;;
7013;SDS011;3547;50.774;12.918;2023-02-03T09:24:00;1.70;;;1.60;;
7013;SDS011;3547;50.774;12.918;2023-02-03T09:26:27;2.03;;;1.80;;
7013;SDS011;3547;50.774;12.918;2023-02-03T09:28:53;2.73;;;1.47;;
7013;SDS011;3547;50.774;12.918;2023-02-03T09:31:19;2.60;;;1.87;;
7013;SDS011;3547;50.774;12.918;2023-02-03T09:33:45;2.80;;;1.67;;
7013;SDS011;3547;50.774;12.918;2023-02-03T09:36:11;2.03;;;1.77;;
7013;SDS011;3547;50.774;12.918;2023-02-03T09:38:38;5.73;;;2.00;;
7013;SDS011;3547;50.774;12.918;2023-02-03T09:43:48;2.57;;;1.90;;
7013;SDS011;3547;50.774;12.918;2023-02-03T09:46:37;4.27;;;1.90;;
7013;SDS011;3547;50.774;12.918;2023-02-03T09:49:11;2.20;;;1.87;;
7013;SDS011;3547;50.774;12.918;2023-02-03T09:51:44;2.40;;;1.90;;
7013;SDS011;3547;50.774;12.918;2023-02-03T09:54:30;1.17;;;1.07;;
7013;SDS011;3547;50.774;12.918;2023-02-03T09:57:04;2.03;;;1.43;;
7013;SDS011;3547;50.774;12.918;2023-02-03T09:59:37;2.07;;;1.83;;
7013;SDS011;3547;50.774;12.918;2023-02-03T10:04:38;2.50;;;1.83;;
7013;SDS011;3547;50.774;12.918;2023-02-03T10:08:01;1.70;;;1.37;;
7013;SDS011;3547;50.774;12.918;2023-02-03T10:10:24;1.93;;;1.73;;
7013;SDS011;3547;50.774;12.918;2023-02-03T10:13:06;1.87;;;1.50;;
7013;SDS011;3547;50.774;12.918;2023-02-03T10:16:01;3.20;;;2.20;;
7013;SDS011;3547;50.774;12.918;2023-02-03T10:18:43;3.33;;;1.73;;
7013;SDS011;3547;50.774;12.918;2023-02-03T10:21:16;3.83;;;1.50;;
7013;SDS011;3547;50.774;12.918;2023-02-03T10:23:42;2.17;;;1.60;;
7013;SDS011;3547;50.774;12.918;2023-02-03T10:26:18;3.20;;;2.00;;
7013;SDS011;3547;50.774;12.918;2023-02-03T10:28:50;1.90;;;1.50;;
7013;SDS011;3547;50.774;12.918;2023-02-03T10:31:26;1.67;;;1.57;;
7013;SDS011;3547;50.774;12.918;2023-02-03T10:36:42;1.63;;;1.33;;
7013;SDS011;3547;50.774;12.918;2023-02-03T10:39:31;3.00;;;1.63;;
7013;SDS011;3547;50.774;12.918;2023-02-03T10:42:00;1.67;;;0.97;;
7013;SDS011;3547;50.774;12.918;2023-02-03T10:44:39;2.67;;;1.40;;
7013;SDS011;3547;50.774;12.918;2023-02-03T10:49:46;1.27;;;1.17;;
7013;SDS011;3547;50.774;12.918;2023-02-03T10:52:27;1.93;;;1.73;;
7013;SDS011;3547;50.774;12.918;2023-02-03T10:54:59;3.53;;;1.50;;
7013;SDS011;3547;50.774;12.918;2023-02-03T10:57:53;1.67;;;1.50;;
7013;SDS011;3547;50.774;12.918;2023-02-03T11:00:27;2.30;;;1.70;;
7013;SDS011;3547;50.774;12.918;2023-02-03T11:02:56;1.47;;;1.37;;
7013;SDS011;3547;50.774;12.918;2023-02-03T11:05:28;2.17;;;1.47;;
7013;SDS011;3547;50.774;12.918;2023-02-03T11:07:54;3.13;;;1.07;;
7013;SDS011;3547;50.774;12.918;2023-02-03T11:16:13;0.73;;;0.73;;
7013;SDS011;3547;50.774;12.918;2023-02-03T11:21:29;1.10;;;1.00;;
7013;SDS011;3547;50.774;12.918;2023-02-03T11:26:47;1.27;;;1.03;;
7013;SDS011;3547;50.774;12.918;2023-02-03T11:29:24;2.33;;;1.30;;
7013;SDS011;3547;50.774;12.918;2023-02-03T11:31:56;3.03;;;1.50;;
7013;SDS011;3547;50.774;12.918;2023-02-03T11:34:35;1.70;;;1.40;;
7013;SDS011;3547;50.774;12.918;2023-02-03T11:37:09;1.13;;;1.03;;
7013;SDS011;3547;50.774;12.918;2023-02-03T11:39:56;1.67;;;1.27;;
7013;SDS011;3547;50.774;12.918;2023-02-03T12:06:50;0.70;;;0.53;;
7013;SDS011;3547;50.774;12.918;2023-02-03T12:09:27;2.33;;;0.93;;
7013;SDS011;3547;50.774;12.918;2023-02-03T12:15:41;1.07;;;0.90;;
7013;SDS011;3547;50.774;12.918;2023-02-03T12:17:55;1.00;;;0.90;;
7013;SDS011;3547;50.774;12.918;2023-02-03T12:20:47;0.80;;;0.73;;
7013;SDS011;3547;50.774;12.918;2023-02-03T12:26:23;1.13;;;0.83;;
7013;SDS011;3547;50.774;12.918;2023-02-03T12:34:49;2.83;;;0.93;;
7013;SDS011;3547;50.774;12.918;2023-02-03T12:37:15;2.47;;;1.00;;
7013;SDS011;3547;50.774;12.918;2023-02-03T12:42:33;1.00;;;0.90;;
7013;SDS011;3547;50.774;12.918;2023-02-03T12:45:08;1.70;;;1.00;;
7013;SDS011;3547;50.774;12.918;2023-02-03T12:48:12;1.60;;;1.37;;
7013;SDS011;3547;50.774;12.918;2023-02-03T12:50:49;0.80;;;0.80;;
7013;SDS011;3547;50.774;12.918;2023-02-03T12:53:34;0.80;;;0.63;;
7013;SDS011;3547;50.774;12.918;2023-02-03T12:56:08;2.60;;;1.37;;
7013;SDS011;3547;50.774;12.918;2023-02-03T13:04:06;1.00;;;1.00;;
7013;SDS011;3547;50.774;12.918;2023-02-03T13:07:07;0.87;;;0.87;;
7013;SDS011;3547;50.774;12.918;2023-02-03T13:12:30;0.73;;;0.63;;
7013;SDS011;3547;50.774;12.918;2023-02-03T13:20:22;1.23;;;0.90;;
7013;SDS011;3547;50.774;12.918;2023-02-03T13:22:51;0.80;;;0.77;;
7013;SDS011;3547;50.774;12.918;2023-02-03T13:25:25;1.27;;;1.07;;
7013;SDS011;3547;50.774;12.918;2023-02-03T13:28:04;1.80;;;0.83;;
7013;SDS011;3547;50.774;12.918;2023-02-03T13:30:45;5.17;;;1.10;;
7013;SDS011;3547;50.774;12.918;2023-02-03T13:42:18;3.37;;;1.03;;
7013;SDS011;3547;50.774;12.918;2023-02-03T13:44:57;0.80;;;0.80;;
7013;SDS011;3547;50.774;12.918;2023-02-03T13:47:34;1.10;;;1.00;;
7013;SDS011;3547;50.774;12.918;2023-02-03T13:50:01;0.80;;;0.80;;
7013;SDS011;3547;50.774;12.918;2023-02-03T13:52:34;0.93;;;0.90;;
7013;SDS011;3547;50.774;12.918;2023-02-03T13:55:05;1.50;;;0.90;;
7013;SDS011;3547;50.774;12.918;2023-02-03T13:57:33;3.73;;;0.93;;
7013;SDS011;3547;50.774;12.918;2023-02-03T14:00:03;1.13;;;0.90;;
7013;SDS011;3547;50.774;12.918;2023-02-03T14:02:50;2.27;;;1.10;;
7013;SDS011;3547;50.774;12.918;2023-02-03T14:05:38;1.10;;;0.97;;
7013;SDS011;3547;50.774;12.918;2023-02-03T14:19:08;1.57;;;0.70;;
7013;SDS011;3547;50.774;12.918;2023-02-03T14:21:53;0.77;;;0.77;;
7013;SDS011;3547;50.774;12.918;2023-02-03T14:26:59;0.90;;;0.90;;
7013;SDS011;3547;50.774;12.918;2023-02-03T14:29:34;7.00;;;1.57;;
7013;SDS011;3547;50.774;12.918;2023-02-03T14:32:05;1.40;;;0.60;;
7013;SDS011;3547;50.774;12.918;2023-02-03T14:39:51;0.33;;;0.33;;
7013;SDS011;3547;50.774;12.918;2023-02-03T14:42:28;0.60;;;0.53;;
7013;SDS011;3547;50.774;12.918;2023-02-03T14:56:11;2.77;;;0.93;;
7013;SDS011;3547;50.774;12.918;2023-02-03T14:58:52;2.60;;;1.30;;
7013;SDS011;3547;50.774;12.918;2023-02-03T15:01:26;1.27;;;0.90;;
7013;SDS011;3547;50.774;12.918;2023-02-03T15:06:41;2.70;;;0.90;;
7013;SDS011;3547;50.774;12.918;2023-02-03T15:09:22;4.60;;;0.97;;
7013;SDS011;3547;50.774;12.918;2023-02-03T15:12:21;3.17;;;0.83;;
7013;SDS011;3547;50.774;12.918;2023-02-03T15:14:50;1.83;;;1.13;;
7013;SDS011;3547;50.774;12.918;2023-02-03T15:17:26;3.33;;;1.00;;
7013;SDS011;3547;50.774;12.918;2023-02-03T15:19:53;4.33;;;1.63;;
7013;SDS011;3547;50.774;12.918;2023-02-03T15:22:23;2.50;;;0.90;;
7013;SDS011;3547;50.774;12.918;2023-02-03T15:24:57;2.83;;;1.03;;
7013;SDS011;3547;50.774;12.918;2023-02-03T15:27:28;4.10;;;1.27;;
7013;SDS011;3547;50.774;12.918;2023-02-03T15:29:55;4.63;;;1.30;;
7013;SDS011;3547;50.774;12.918;2023-02-03T15:32:29;4.10;;;0.93;;
7013;SDS011;3547;50.774;12.918;2023-02-03T15:35:04;8.03;;;1.63;;
7013;SDS011;3547;50.774;12.918;2023-02-03T15:40:20;2.47;;;1.00;;
7013;SDS011;3547;50.774;12.918;2023-02-03T15:53:07;7.67;;;1.40;;
7013;SDS011;3547;50.774;12.918;2023-02-03T15:55:40;3.30;;;0.60;;
7013;SDS011;3547;50.774;12.918;2023-02-03T15:58:19;3.90;;;0.97;;
7013;SDS011;3547;50.774;12.918;2023-02-03T16:00:52;7.37;;;1.70;;
7013;SDS011;3547;50.774;12.918;2023-02-03T16:03:25;3.77;;;1.40;;
7013;SDS011;3547;50.774;12.918;2023-02-03T16:06:04;3.43;;;0.90;;
7013;SDS011;3547;50.774;12.918;2023-02-03T16:08:43;3.53;;;1.47;;
7013;SDS011;3547;50.774;12.918;2023-02-03T16:13:49;3.23;;;1.50;;
7013;SDS011;3547;50.774;12.918;2023-02-03T16:24:31;5.70;;;1.33;;
7013;SDS011;3547;50.774;12.918;2023-02-03T16:29:54;11.33;;;1.93;;
7013;SDS011;3547;50.774;12.918;2023-02-03T16:35:45;2.80;;;1.20;;
7013;SDS011;3547;50.774;12.918;2023-02-03T16:38:30;2.43;;;1.10;;
7013;SDS011;3547;50.774;12.918;2023-02-03T16:41:15;4.83;;;0.97;;
7013;SDS011;3547;50.774;12.918;2023-02-03T16:47:37;3.73;;;1.43;;
7013;SDS011;3547;50.774;12.918;2023-02-03T16:50:22;2.27;;;1.13;;
7013;SDS011;3547;50.774;12.918;2023-02-03T16:53:11;9.60;;;1.83;;
7013;SDS011;3547;50.774;12.918;2023-02-03T16:55:40;3.13;;;1.17;;
7013;SDS011;3547;50.774;12.918;2023-02-03T16:58:06;11.80;;;2.27;;
7013;SDS011;3547;50.774;12.918;2023-02-03T17:00:34;5.27;;;1.13;;
7013;SDS011;3547;50.774;12.918;2023-02-03T17:03:03;6.50;;;1.40;;
7013;SDS011;3547;50.774;12.918;2023-02-03T17:05:29;3.70;;;1.10;;
7013;SDS011;3547;50.774;12.918;2023-02-03T17:07:55;5.77;;;1.33;;
7013;SDS011;3547;50.774;12.918;2023-02-03T17:10:21;5.60;;;1.13;;
7013;SDS011;3547;50.774;12.918;2023-02-03T17:12:50;3.77;;;0.63;;
7013;SDS011;3547;50.774;12.918;2023-02-03T17:15:16;6.77;;;1.27;;
7013;SDS011;3547;50.774;12.918;2023-02-03T17:17:42;4.47;;;1.37;;
7013;SDS011;3547;50.774;12.918;2023-02-03T17:20:09;4.40;;;1.33;;
7013;SDS011;3547;50.774;12.918;2023-02-03T17:22:35;6.73;;;1.37;;
7013;SDS011;3547;50.774;12.918;2023-02-03T17:25:01;6.27;;;1.43;;
7013;SDS011;3547;50.774;12.918;2023-02-03T17:27:27;3.47;;;1.47;;
7013;SDS011;3547;50.774;12.918;2023-02-03T17:29:53;7.10;;;1.60;;
7013;SDS011;3547;50.774;12.918;2023-02-03T17:32:20;3.23;;;1.40;;
7013;SDS011;3547;50.774;12.918;2023-02-03T17:34:46;9.73;;;1.53;;
7013;SDS011;3547;50.774;12.918;2023-02-03T17:37:12;10.47;;;1.87;;
7013;SDS011;3547;50.774;12.918;2023-02-03T17:39:38;2.33;;;1.13;;
7013;SDS011;3547;50.774;12.918;2023-02-03T17:42:04;7.90;;;1.43;;
7013;SDS011;3547;50.774;12.918;2023-02-03T17:44:32;4.73;;;1.37;;
7013;SDS011;3547;50.774;12.918;2023-02-03T17:46:59;8.83;;;1.93;;
7013;SDS011;3547;50.774;12.918;2023-02-03T17:49:25;3.60;;;1.13;;
7013;SDS011;3547;50.774;12.918;2023-02-03T17:51:51;6.67;;;1.50;;
7013;SDS011;3547;50.774;12.918;2023-02-03T17:54:17;4.17;;;1.63;;
7013;SDS011;3547;50.774;12.918;2023-02-03T17:56:43;10.07;;;1.43;;
7013;SDS011;3547;50.774;12.918;2023-02-03T17:59:12;8.50;;;1.53;;
7013;SDS011;3547;50.774;12.918;2023-02-03T18:01:38;4.80;;;1.20;;
7013;SDS011;3547;50.774;12.918;2023-02-03T18:04:05;7.33;;;1.77;;
7013;SDS011;3547;50.774;12.918;2023-02-03T18:06:33;9.00;;;1.97;;
7013;SDS011;3547;50.774;12.918;2023-02-03T18:09:00;7.83;;;1.40;;
7013;SDS011;3547;50.774;12.918;2023-02-03T18:11:31;5.23;;;1.40;;
7013;SDS011;3547;50.774;12.918;2023-02-03T18:13:59;4.37;;;1.20;;
7013;SDS011;3547;50.774;12.918;2023-02-03T18:16:26;3.83;;;1.50;;
7013;SDS011;3547;50.774;12.918;2023-02-03T18:18:56;7.67;;;1.53;;
7013;SDS011;3547;50.774;12.918;2023-02-03T18:21:24;9.57;;;2.03;;
7013;SDS011;3547;50.774;12.918;2023-02-03T18:23:51;4.50;;;1.20;;
7013;SDS011;3547;50.774;12.918;2023-02-03T18:26:21;3.00;;;1.10;;
7013;SDS011;3547;50.774;12.918;2023-02-03T18:28:50;4.93;;;1.47;;